sensor_id;sensor_type;location;lat;lon;timestamp;pressure;altitude;pressure_sealevel;temperature;humidity
76448;BME280;65284;51.040;13.722;2023-04-25T00:01:51;99066.75;;;9.39;70.03
76448;BME280;65284;51.040;13.722;2023-04-25T00:04:18;99061.63;;;9.37;69.91
76448;BME280;65284;51.040;13.722;2023-04-25T00:06:45;99060.19;;;9.49;69.56
76448;BME280;65284;51.040;13.722;2023-04-25T00:09:12;99068.81;;;9.51;69.64
76448;BME280;65284;51.040;13.722;2023-04-25T00:11:40;99060.56;;;9.46;69.50
76448;BME280;65284;51.040;13.722;2023-04-25T00:14:06;99070.34;;;9.46;69.74
76448;BME280;65284;51.040;13.722;2023-04-25T00:16:33;99059.94;;;9.44;69.85
76448;BME280;65284;51.040;13.722;2023-04-25T00:19:01;99062.22;;;9.47;69.63
76448;BME280;65284;51.040;13.722;2023-04-25T00:21:30;99054.31;;;9.39;69.79
76448;BME280;65284;51.040;13.722;2023-04-25T00:23:57;99061.25;;;9.40;69.98
76448;BME280;65284;51.040;13.722;2023-04-25T00:26:23;99067.06;;;9.44;69.43
76448;BME280;65284;51.040;13.722;2023-04-25T00:28:51;99063.63;;;9.35;70.18
76448;BME280;65284;51.040;13.722;2023-04-25T00:31:17;99066.41;;;9.42;69.64
76448;BME280;65284;51.040;13.722;2023-04-25T00:33:44;99066.34;;;9.27;70.44
76448;BME280;65284;51.040;13.722;2023-04-25T00:36:10;99066.69;;;9.24;69.93
76448;BME280;65284;51.040;13.722;2023-04-25T00:38:37;99058.75;;;9.24;69.97
76448;BME280;65284;51.040;13.722;2023-04-25T00:41:05;99066.69;;;9.24;70.28
76448;BME280;65284;51.040;13.722;2023-04-25T00:43:32;99064.69;;;9.26;69.54
76448;BME280;65284;51.040;13.722;2023-04-25T00:46:00;99061.47;;;9.07;70.52
76448;BME280;65284;51.040;13.722;2023-04-25T00:48:27;99062.78;;;9.11;70.07
76448;BME280;65284;51.040;13.722;2023-04-25T00:50:56;99056.53;;;9.04;70.47
76448;BME280;65284;51.040;13.722;2023-04-25T00:53:25;99061.81;;;9.04;70.29
76448;BME280;65284;51.040;13.722;2023-04-25T00:55:53;99061.53;;;8.99;70.51
76448;BME280;65284;51.040;13.722;2023-04-25T00:58:20;99049.59;;;9.03;69.86
76448;BME280;65284;51.040;13.722;2023-04-25T01:00:49;99051.47;;;8.95;70.05
76448;BME280;65284;51.040;13.722;2023-04-25T01:03:16;99052.97;;;8.89;70.52
76448;BME280;65284;51.040;13.722;2023-04-25T01:05:46;99051.69;;;8.85;70.35
76448;BME280;65284;51.040;13.722;2023-04-25T01:08:14;99053.00;;;8.81;70.68
76448;BME280;65284;51.040;13.722;2023-04-25T01:10:40;99056.38;;;8.66;70.69
76448;BME280;65284;51.040;13.722;2023-04-25T01:13:07;99048.44;;;8.66;71.21
76448;BME280;65284;51.040;13.722;2023-04-25T01:15:34;99057.72;;;8.62;70.91
76448;BME280;65284;51.040;13.722;2023-04-25T01:18:03;99059.38;;;8.63;70.83
76448;BME280;65284;51.040;13.722;2023-04-25T01:20:31;99052.09;;;8.65;70.46
76448;BME280;65284;51.040;13.722;2023-04-25T01:22:59;99056.13;;;8.53;70.87
76448;BME280;65284;51.040;13.722;2023-04-25T01:25:26;99055.97;;;8.55;70.45
76448;BME280;65284;51.040;13.722;2023-04-25T01:27:52;99055.78;;;8.48;70.55
76448;BME280;65284;51.040;13.722;2023-04-25T01:30:19;99062.91;;;8.48;70.27
76448;BME280;65284;51.040;13.722;2023-04-25T01:32:46;99054.34;;;8.37;70.50
76448;BME280;65284;51.040;13.722;2023-04-25T01:35:13;99051.19;;;8.34;70.67
76448;BME280;65284;51.040;13.722;2023-04-25T01:37:40;99052.88;;;8.27;70.90
76448;BME280;65284;51.040;13.722;2023-04-25T01:40:08;99051.69;;;8.29;70.23
76448;BME280;65284;51.040;13.722;2023-04-25T01:42:36;99054.03;;;8.24;70.36
76448;BME280;65284;51.040;13.722;2023-04-25T01:45:04;99050.88;;;8.29;70.03
76448;BME280;65284;51.040;13.722;2023-04-25T01:47:32;99048.22;;;8.29;70.00
76448;BME280;65284;51.040;13.722;2023-04-25T01:49:58;99051.22;;;8.26;69.94
76448;BME280;65284;51.040;13.722;2023-04-25T01:52:24;99058.16;;;8.18;70.04
76448;BME280;65284;51.040;13.722;2023-04-25T01:54:51;99053.88;;;8.17;69.88
76448;BME280;65284;51.040;13.722;2023-04-25T01:57:18;99058.50;;;8.15;70.16
76448;BME280;65284;51.040;13.722;2023-04-25T01:59:44;99057.53;;;8.16;69.98
76448;BME280;65284;51.040;13.722;2023-04-25T02:02:11;99056.06;;;8.06;70.00
76448;BME280;65284;51.040;13.722;2023-04-25T02:04:37;99055.56;;;8.02;69.91
76448;BME280;65284;51.040;13.722;2023-04-25T02:07:04;99059.38;;;8.08;69.75
76448;BME280;65284;51.040;13.722;2023-04-25T02:09:30;99066.16;;;8.02;70.19
76448;BME280;65284;51.040;13.722;2023-04-25T02:11:57;99062.16;;;7.98;69.78
76448;BME280;65284;51.040;13.722;2023-04-25T02:14:24;99050.09;;;7.95;69.61
76448;BME280;65284;51.040;13.722;2023-04-25T02:16:50;99061.19;;;7.91;69.79
76448;BME280;65284;51.040;13.722;2023-04-25T02:19:17;99057.06;;;7.88;70.39
76448;BME280;65284;51.040;13.722;2023-04-25T02:21:43;99065.16;;;7.95;69.95
76448;BME280;65284;51.040;13.722;2023-04-25T02:24:10;99053.94;;;7.93;70.46
76448;BME280;65284;51.040;13.722;2023-04-25T02:26:36;99049.97;;;7.89;70.61
76448;BME280;65284;51.040;13.722;2023-04-25T02:29:03;99048.31;;;7.88;70.26
76448;BME280;65284;51.040;13.722;2023-04-25T02:31:29;99054.59;;;7.87;70.20
76448;BME280;65284;51.040;13.722;2023-04-25T02:33:55;99056.25;;;7.80;70.72
76448;BME280;65284;51.040;13.722;2023-04-25T02:36:22;99058.75;;;7.81;70.38
76448;BME280;65284;51.040;13.722;2023-04-25T02:38:48;99049.81;;;7.74;70.66
76448;BME280;65284;51.040;13.722;2023-04-25T02:41:15;99050.31;;;7.69;70.60
76448;BME280;65284;51.040;13.722;2023-04-25T02:43:41;99052.63;;;7.64;71.27
76448;BME280;65284;51.040;13.722;2023-04-25T02:46:08;99049.31;;;7.79;71.09
76448;BME280;65284;51.040;13.722;2023-04-25T02:48:34;99049.31;;;7.70;70.99
76448;BME280;65284;51.040;13.722;2023-04-25T02:51:01;99046.03;;;7.60;71.59
76448;BME280;65284;51.040;13.722;2023-04-25T02:53:27;99046.03;;;7.60;71.65
76448;BME280;65284;51.040;13.722;2023-04-25T02:55:54;99046.34;;;7.57;71.33
76448;BME280;65284;51.040;13.722;2023-04-25T02:58:20;99049.97;;;7.56;71.90
76448;BME280;65284;51.040;13.722;2023-04-25T03:00:47;99048.34;;;7.55;71.92
76448;BME280;65284;51.040;13.722;2023-04-25T03:03:13;99044.88;;;7.55;71.83
76448;BME280;65284;51.040;13.722;2023-04-25T03:05:41;99046.66;;;7.54;71.50
76448;BME280;65284;51.040;13.722;2023-04-25T03:08:07;99056.25;;;7.55;71.69
76448;BME280;65284;51.040;13.722;2023-04-25T03:10:34;99048.19;;;7.48;71.90
76448;BME280;65284;51.040;13.722;2023-04-25T03:13:00;99048.66;;;7.52;71.76
76448;BME280;65284;51.040;13.722;2023-04-25T03:15:26;99043.72;;;7.49;71.99
76448;BME280;65284;51.040;13.722;2023-04-25T03:17:53;99043.34;;;7.36;72.39
76448;BME280;65284;51.040;13.722;2023-04-25T03:20:19;99048.63;;;7.36;72.02
76448;BME280;65284;51.040;13.722;2023-04-25T03:22:46;99047.34;;;7.40;72.13
76448;BME280;65284;51.040;13.722;2023-04-25T03:25:12;99051.94;;;7.29;72.48
76448;BME280;65284;51.040;13.722;2023-04-25T03:27:39;99047.00;;;7.35;72.48
76448;BME280;65284;51.040;13.722;2023-04-25T03:30:06;99040.88;;;7.26;72.69
76448;BME280;65284;51.040;13.722;2023-04-25T03:32:34;99047.34;;;7.32;72.10
76448;BME280;65284;51.040;13.722;2023-04-25T03:35:01;99044.69;;;7.23;72.25
76448;BME280;65284;51.040;13.722;2023-04-25T03:37:27;99048.97;;;7.16;72.54
76448;BME280;65284;51.040;13.722;2023-04-25T03:39:54;99046.97;;;7.18;72.85
76448;BME280;65284;51.040;13.722;2023-04-25T03:42:20;99054.56;;;7.21;73.15
76448;BME280;65284;51.040;13.722;2023-04-25T03:44:49;99050.94;;;7.14;72.87
76448;BME280;65284;51.040;13.722;2023-04-25T03:47:16;99048.47;;;7.21;72.84
76448;BME280;65284;51.040;13.722;2023-04-25T03:49:42;99054.75;;;7.20;72.79
76448;BME280;65284;51.040;13.722;2023-04-25T03:52:09;99048.63;;;7.19;72.69
76448;BME280;65284;51.040;13.722;2023-04-25T03:54:35;99052.91;;;7.12;72.82
76448;BME280;65284;51.040;13.722;2023-04-25T03:57:02;99047.31;;;7.07;73.03
76448;BME280;65284;51.040;13.722;2023-04-25T03:59:28;99053.56;;;7.06;72.82
76448;BME280;65284;51.040;13.722;2023-04-25T04:01:55;99051.25;;;7.11;72.83
76448;BME280;65284;51.040;13.722;2023-04-25T04:04:21;99050.59;;;7.17;72.81
76448;BME280;65284;51.040;13.722;2023-04-25T04:06:48;99055.03;;;7.00;73.17
76448;BME280;65284;51.040;13.722;2023-04-25T04:09:14;99050.25;;;6.96;73.59
76448;BME280;65284;51.040;13.722;2023-04-25T04:11:41;99053.84;;;6.87;74.05
76448;BME280;65284;51.040;13.722;2023-04-25T04:14:08;99048.25;;;6.90;73.86
76448;BME280;65284;51.040;13.722;2023-04-25T04:16:36;99060.44;;;6.91;74.01
76448;BME280;65284;51.040;13.722;2023-04-25T04:19:02;99048.56;;;6.87;74.14
76448;BME280;65284;51.040;13.722;2023-04-25T04:21:29;99055.81;;;6.84;73.94
76448;BME280;65284;51.040;13.722;2023-04-25T04:23:56;99044.94;;;6.88;74.10
76448;BME280;65284;51.040;13.722;2023-04-25T04:26:23;99047.94;;;6.93;73.47
76448;BME280;65284;51.040;13.722;2023-04-25T04:28:50;99045.94;;;6.95;72.90
76448;BME280;65284;51.040;13.722;2023-04-25T04:31:21;99055.03;;;6.92;73.41
76448;BME280;65284;51.040;13.722;2023-04-25T04:33:47;99063.44;;;6.96;73.21
76448;BME280;65284;51.040;13.722;2023-04-25T04:36:14;99064.75;;;7.00;73.05
76448;BME280;65284;51.040;13.722;2023-04-25T04:38:41;99064.44;;;7.03;72.91
76448;BME280;65284;51.040;13.722;2023-04-25T04:41:08;99060.81;;;7.04;72.91
76448;BME280;65284;51.040;13.722;2023-04-25T04:43:34;99065.25;;;7.03;72.90
76448;BME280;65284;51.040;13.722;2023-04-25T04:46:01;99066.44;;;7.09;72.61
76448;BME280;65284;51.040;13.722;2023-04-25T04:48:27;99069.41;;;7.06;72.90
76448;BME280;65284;51.040;13.722;2023-04-25T04:50:54;99066.78;;;7.14;72.75
76448;BME280;65284;51.040;13.722;2023-04-25T04:53:20;99080.31;;;7.11;72.89
76448;BME280;65284;51.040;13.722;2023-04-25T04:55:47;99075.69;;;7.13;73.24
76448;BME280;65284;51.040;13.722;2023-04-25T04:58:13;99074.69;;;7.14;72.49
76448;BME280;65284;51.040;13.722;2023-04-25T05:00:42;99075.38;;;7.16;72.70
76448;BME280;65284;51.040;13.722;2023-04-25T05:03:08;99078.97;;;7.15;72.60
76448;BME280;65284;51.040;13.722;2023-04-25T05:05:35;99081.97;;;7.20;72.31
76448;BME280;65284;51.040;13.722;2023-04-25T05:08:01;99081.31;;;7.26;72.38
76448;BME280;65284;51.040;13.722;2023-04-25T05:10:28;99088.25;;;7.27;72.14
76448;BME280;65284;51.040;13.722;2023-04-25T05:12:54;99078.84;;;7.25;72.57
76448;BME280;65284;51.040;13.722;2023-04-25T05:15:20;99080.34;;;7.36;72.08
76448;BME280;65284;51.040;13.722;2023-04-25T05:17:47;99079.19;;;7.38;71.97
76448;BME280;65284;51.040;13.722;2023-04-25T05:20:13;99092.56;;;7.45;70.83
76448;BME280;65284;51.040;13.722;2023-04-25T05:22:40;99093.25;;;7.55;70.82
76448;BME280;65284;51.040;13.722;2023-04-25T05:25:08;99092.59;;;7.61;69.98
76448;BME280;65284;51.040;13.722;2023-04-25T05:27:35;99101.31;;;7.53;69.95
76448;BME280;65284;51.040;13.722;2023-04-25T05:30:02;99087.63;;;7.58;70.06
76448;BME280;65284;51.040;13.722;2023-04-25T05:32:28;99088.31;;;7.60;69.62
76448;BME280;65284;51.040;13.722;2023-04-25T05:34:55;99082.66;;;7.71;69.30
76448;BME280;65284;51.040;13.722;2023-04-25T05:37:21;99085.66;;;7.68;69.18
76448;BME280;65284;51.040;13.722;2023-04-25T05:39:48;99090.28;;;7.74;68.20
76448;BME280;65284;51.040;13.722;2023-04-25T05:42:14;99081.03;;;7.79;67.54
76448;BME280;65284;51.040;13.722;2023-04-25T05:44:40;99078.53;;;7.69;67.12
76448;BME280;65284;51.040;13.722;2023-04-25T05:47:07;99099.69;;;7.69;66.91
76448;BME280;65284;51.040;13.722;2023-04-25T05:49:34;99087.63;;;7.74;67.27
76448;BME280;65284;51.040;13.722;2023-04-25T05:52:04;99088.97;;;7.87;66.54
76448;BME280;65284;51.040;13.722;2023-04-25T05:54:30;99089.94;;;7.86;66.58
76448;BME280;65284;51.040;13.722;2023-04-25T05:56:56;99095.06;;;7.95;65.66
76448;BME280;65284;51.040;13.722;2023-04-25T05:59:23;99102.16;;;7.95;65.99
76448;BME280;65284;51.040;13.722;2023-04-25T06:01:49;99096.56;;;7.82;65.78
76448;BME280;65284;51.040;13.722;2023-04-25T06:04:16;99094.56;;;7.84;65.87
76448;BME280;65284;51.040;13.722;2023-04-25T06:06:43;99086.28;;;7.95;65.81
76448;BME280;65284;51.040;13.722;2023-04-25T06:09:09;99098.03;;;7.92;65.87
76448;BME280;65284;51.040;13.722;2023-04-25T06:11:39;99095.72;;;7.97;65.75
76448;BME280;65284;51.040;13.722;2023-04-25T06:14:05;99097.88;;;8.02;65.63
76448;BME280;65284;51.040;13.722;2023-04-25T06:16:32;99099.84;;;7.92;65.38
76448;BME280;65284;51.040;13.722;2023-04-25T06:18:58;99094.38;;;8.10;64.86
76448;BME280;65284;51.040;13.722;2023-04-25T06:21:25;99101.50;;;8.01;64.68
76448;BME280;65284;51.040;13.722;2023-04-25T06:23:51;99102.84;;;7.97;64.81
76448;BME280;65284;51.040;13.722;2023-04-25T06:26:18;99096.53;;;7.98;65.00
76448;BME280;65284;51.040;13.722;2023-04-25T06:28:45;99099.19;;;8.06;65.20
76448;BME280;65284;51.040;13.722;2023-04-25T06:31:11;99087.25;;;8.18;64.86
76448;BME280;65284;51.040;13.722;2023-04-25T06:33:38;99105.44;;;8.30;64.12
76448;BME280;65284;51.040;13.722;2023-04-25T06:36:04;99127.75;;;8.27;63.96
76448;BME280;65284;51.040;13.722;2023-04-25T06:38:31;99096.38;;;8.00;64.45
76448;BME280;65284;51.040;13.722;2023-04-25T06:40:57;99128.25;;;7.98;63.82
76448;BME280;65284;51.040;13.722;2023-04-25T06:43:24;99099.50;;;8.03;64.17
76448;BME280;65284;51.040;13.722;2023-04-25T06:45:51;99106.78;;;8.01;64.71
76448;BME280;65284;51.040;13.722;2023-04-25T06:48:17;99108.44;;;8.02;64.26
76448;BME280;65284;51.040;13.722;2023-04-25T06:50:43;99109.44;;;8.09;63.92
76448;BME280;65284;51.040;13.722;2023-04-25T06:53:10;99113.06;;;8.08;64.11
76448;BME280;65284;51.040;13.722;2023-04-25T06:55:37;99115.06;;;8.06;64.10
76448;BME280;65284;51.040;13.722;2023-04-25T06:58:04;99099.84;;;8.08;64.31
76448;BME280;65284;51.040;13.722;2023-04-25T07:00:30;99090.56;;;8.20;63.65
76448;BME280;65284;51.040;13.722;2023-04-25T07:02:58;99091.88;;;8.33;63.63
76448;BME280;65284;51.040;13.722;2023-04-25T07:05:25;99099.00;;;8.40;63.13
76448;BME280;65284;51.040;13.722;2023-04-25T07:07:51;99098.16;;;8.32;63.74
76448;BME280;65284;51.040;13.722;2023-04-25T07:10:18;99110.72;;;8.38;62.38
76448;BME280;65284;51.040;13.722;2023-04-25T07:12:44;99102.78;;;8.38;63.07
76448;BME280;65284;51.040;13.722;2023-04-25T07:15:10;99104.78;;;8.44;61.84
76448;BME280;65284;51.040;13.722;2023-04-25T07:17:38;99099.81;;;8.49;62.32
76448;BME280;65284;51.040;13.722;2023-04-25T07:20:05;99090.28;;;8.71;61.26
76448;BME280;65284;51.040;13.722;2023-04-25T07:22:32;99109.97;;;8.69;60.13
76448;BME280;65284;51.040;13.722;2023-04-25T07:24:58;99111.97;;;8.66;59.48
76448;BME280;65284;51.040;13.722;2023-04-25T07:27:25;99097.06;;;8.74;60.47
76448;BME280;65284;51.040;13.722;2023-04-25T07:29:51;99102.56;;;8.64;60.57
76448;BME280;65284;51.040;13.722;2023-04-25T07:32:18;99097.09;;;8.65;61.10
76448;BME280;65284;51.040;13.722;2023-04-25T07:34:45;99106.78;;;8.81;60.96
76448;BME280;65284;51.040;13.722;2023-04-25T07:37:11;99088.94;;;8.75;59.95
76448;BME280;65284;51.040;13.722;2023-04-25T07:39:38;99114.25;;;8.78;59.23
76448;BME280;65284;51.040;13.722;2023-04-25T07:42:04;99099.06;;;8.72;60.34
76448;BME280;65284;51.040;13.722;2023-04-25T07:44:34;99098.41;;;8.70;60.33
76448;BME280;65284;51.040;13.722;2023-04-25T07:47:05;99113.72;;;8.91;59.73
76448;BME280;65284;51.040;13.722;2023-04-25T07:49:34;99105.59;;;8.92;60.21
76448;BME280;65284;51.040;13.722;2023-04-25T07:52:02;99108.16;;;9.08;59.99
76448;BME280;65284;51.040;13.722;2023-04-25T07:54:29;99111.00;;;8.99;60.53
76448;BME280;65284;51.040;13.722;2023-04-25T07:56:55;99101.56;;;9.04;60.24
76448;BME280;65284;51.040;13.722;2023-04-25T07:59:22;99105.16;;;9.11;60.23
76448;BME280;65284;51.040;13.722;2023-04-25T08:01:49;99129.03;;;9.03;59.05
76448;BME280;65284;51.040;13.722;2023-04-25T08:04:16;99119.75;;;9.07;58.49
76448;BME280;65284;51.040;13.722;2023-04-25T08:06:43;99116.47;;;9.05;58.65
76448;BME280;65284;51.040;13.722;2023-04-25T08:09:09;99122.72;;;9.13;58.72
76448;BME280;65284;51.040;13.722;2023-04-25T08:11:36;99124.63;;;9.27;58.96
76448;BME280;65284;51.040;13.722;2023-04-25T08:14:03;99114.97;;;9.34;59.09
76448;BME280;65284;51.040;13.722;2023-04-25T08:16:29;99116.88;;;9.48;58.71
76448;BME280;65284;51.040;13.722;2023-04-25T08:18:56;99124.13;;;9.54;58.87
76448;BME280;65284;51.040;13.722;2023-04-25T08:21:23;99120.19;;;9.50;58.71
76448;BME280;65284;51.040;13.722;2023-04-25T08:23:49;99120.06;;;9.44;59.24
76448;BME280;65284;51.040;13.722;2023-04-25T08:26:15;99127.94;;;9.29;59.71
76448;BME280;65284;51.040;13.722;2023-04-25T08:28:42;99126.25;;;9.28;59.66
76448;BME280;65284;51.040;13.722;2023-04-25T08:31:08;99127.75;;;9.30;59.85
76448;BME280;65284;51.040;13.722;2023-04-25T08:33:35;99125.22;;;9.37;59.49
76448;BME280;65284;51.040;13.722;2023-04-25T08:36:02;99132.19;;;9.38;59.75
76448;BME280;65284;51.040;13.722;2023-04-25T08:38:29;99134.88;;;9.30;60.71
76448;BME280;65284;51.040;13.722;2023-04-25T08:40:56;99145.81;;;9.27;60.62
76448;BME280;65284;51.040;13.722;2023-04-25T08:43:23;99150.13;;;9.20;60.51
76448;BME280;65284;51.040;13.722;2023-04-25T08:45:51;99149.19;;;9.13;61.19
76448;BME280;65284;51.040;13.722;2023-04-25T08:48:21;99138.91;;;9.18;61.30
76448;BME280;65284;51.040;13.722;2023-04-25T08:50:52;99156.81;;;9.07;61.01
76448;BME280;65284;51.040;13.722;2023-04-25T08:53:25;99144.91;;;9.11;61.05
76448;BME280;65284;51.040;13.722;2023-04-25T08:55:53;99144.22;;;9.18;61.11
76448;BME280;65284;51.040;13.722;2023-04-25T08:58:20;99161.31;;;9.07;61.23
76448;BME280;65284;51.040;13.722;2023-04-25T09:00:48;99156.63;;;9.17;61.31
76448;BME280;65284;51.040;13.722;2023-04-25T09:03:15;99169.69;;;9.19;61.17
76448;BME280;65284;51.040;13.722;2023-04-25T09:05:43;99165.44;;;9.09;61.95
76448;BME280;65284;51.040;13.722;2023-04-25T09:08:12;99165.06;;;9.21;61.57
76448;BME280;65284;51.040;13.722;2023-04-25T09:10:39;99177.50;;;9.20;61.60
76448;BME280;65284;51.040;13.722;2023-04-25T09:13:11;99172.78;;;8.99;61.57
76448;BME280;65284;51.040;13.722;2023-04-25T09:15:49;99174.72;;;9.05;61.78
76448;BME280;65284;51.040;13.722;2023-04-25T09:18:26;99182.50;;;8.99;61.61
76448;BME280;65284;51.040;13.722;2023-04-25T09:21:16;99196.91;;;9.04;61.99
76448;BME280;65284;51.040;13.722;2023-04-25T09:23:47;99191.97;;;8.93;63.16
76448;BME280;65284;51.040;13.722;2023-04-25T09:26:17;99191.31;;;8.99;62.94
76448;BME280;65284;51.040;13.722;2023-04-25T09:28:44;99192.59;;;9.03;61.85
76448;BME280;65284;51.040;13.722;2023-04-25T09:31:12;99215.16;;;8.99;61.13
76448;BME280;65284;51.040;13.722;2023-04-25T09:33:40;99196.94;;;8.96;60.96
76448;BME280;65284;51.040;13.722;2023-04-25T09:36:09;99206.88;;;8.94;61.85
76448;BME280;65284;51.040;13.722;2023-04-25T09:38:42;99217.81;;;8.91;62.52
76448;BME280;65284;51.040;13.722;2023-04-25T09:41:10;99220.47;;;8.75;62.66
76448;BME280;65284;51.040;13.722;2023-04-25T09:43:37;99212.53;;;8.75;63.59
76448;BME280;65284;51.040;13.722;2023-04-25T09:46:09;99219.81;;;8.81;62.56
76448;BME280;65284;51.040;13.722;2023-04-25T09:48:35;99212.88;;;8.80;63.07
76448;BME280;65284;51.040;13.722;2023-04-25T09:51:07;99232.56;;;8.69;63.89
76448;BME280;65284;51.040;13.722;2023-04-25T09:53:44;99227.44;;;8.76;63.91
76448;BME280;65284;51.040;13.722;2023-04-25T09:56:22;99215.84;;;8.85;63.76
76448;BME280;65284;51.040;13.722;2023-04-25T09:58:50;99229.09;;;8.85;63.63
76448;BME280;65284;51.040;13.722;2023-04-25T10:01:20;99225.44;;;8.86;63.67
76448;BME280;65284;51.040;13.722;2023-04-25T10:03:49;99212.28;;;9.09;63.83
76448;BME280;65284;51.040;13.722;2023-04-25T10:06:19;99218.38;;;9.26;62.39
76448;BME280;65284;51.040;13.722;2023-04-25T10:08:49;99209.19;;;9.37;62.09
76448;BME280;65284;51.040;13.722;2023-04-25T10:11:17;99234.22;;;9.34;62.33
76448;BME280;65284;51.040;13.722;2023-04-25T10:13:44;99213.66;;;9.36;62.21
76448;BME280;65284;51.040;13.722;2023-04-25T10:16:11;99233.16;;;9.43;61.35
76448;BME280;65284;51.040;13.722;2023-04-25T10:18:38;99218.50;;;9.32;61.40
76448;BME280;65284;51.040;13.722;2023-04-25T10:21:05;99230.63;;;9.19;62.17
76448;BME280;65284;51.040;13.722;2023-04-25T10:23:32;99250.78;;;9.28;62.11
76448;BME280;65284;51.040;13.722;2023-04-25T10:26:01;99235.81;;;9.43;62.39
76448;BME280;65284;51.040;13.722;2023-04-25T10:28:28;99242.50;;;9.31;62.38
76448;BME280;65284;51.040;13.722;2023-04-25T10:31:00;99232.22;;;9.36;63.00
76448;BME280;65284;51.040;13.722;2023-04-25T10:33:35;99248.13;;;9.36;61.90
76448;BME280;65284;51.040;13.722;2023-04-25T10:36:17;99228.19;;;9.48;62.21
76448;BME280;65284;51.040;13.722;2023-04-25T10:38:45;99243.41;;;9.54;62.15
76448;BME280;65284;51.040;13.722;2023-04-25T10:41:12;99244.09;;;9.48;62.24
76448;BME280;65284;51.040;13.722;2023-04-25T10:43:40;99229.81;;;9.49;62.02
76448;BME280;65284;51.040;13.722;2023-04-25T10:48:49;99250.16;;;9.26;63.55
76448;BME280;65284;51.040;13.722;2023-04-25T10:54:08;99240.22;;;9.20;63.60
76448;BME280;65284;51.040;13.722;2023-04-25T10:56:39;99240.59;;;9.08;64.26
76448;BME280;65284;51.040;13.722;2023-04-25T10:59:11;99258.50;;;8.90;65.06
76448;BME280;65284;51.040;13.722;2023-04-25T11:01:53;99237.03;;;8.85;65.74
76448;BME280;65284;51.040;13.722;2023-04-25T11:04:23;99264.00;;;8.88;66.17
76448;BME280;65284;51.040;13.722;2023-04-25T11:07:00;99258.03;;;8.86;65.89
76448;BME280;65284;51.040;13.722;2023-04-25T11:09:33;99266.81;;;8.79;66.44
76448;BME280;65284;51.040;13.722;2023-04-25T11:12:00;99289.16;;;8.68;65.83
76448;BME280;65284;51.040;13.722;2023-04-25T11:14:27;99283.38;;;8.64;65.08
76448;BME280;65284;51.040;13.722;2023-04-25T11:16:54;99259.88;;;8.70;65.54
76448;BME280;65284;51.040;13.722;2023-04-25T11:19:27;99296.44;;;8.66;66.27
76448;BME280;65284;51.040;13.722;2023-04-25T11:21:55;99260.19;;;8.66;67.08
76448;BME280;65284;51.040;13.722;2023-04-25T11:24:27;99276.41;;;8.63;68.19
76448;BME280;65284;51.040;13.722;2023-04-25T11:26:53;99302.91;;;8.47;69.68
76448;BME280;65284;51.040;13.722;2023-04-25T11:29:23;99299.94;;;8.58;69.93
76448;BME280;65284;51.040;13.722;2023-04-25T11:31:50;99300.75;;;8.59;70.16
76448;BME280;65284;51.040;13.722;2023-04-25T11:34:20;99300.91;;;8.74;67.47
76448;BME280;65284;51.040;13.722;2023-04-25T11:36:46;99311.66;;;8.80;66.91
76448;BME280;65284;51.040;13.722;2023-04-25T11:39:12;99289.31;;;8.75;67.24
76448;BME280;65284;51.040;13.722;2023-04-25T11:41:41;99343.94;;;8.68;65.82
76448;BME280;65284;51.040;13.722;2023-04-25T11:44:08;99310.84;;;8.55;66.49
76448;BME280;65284;51.040;13.722;2023-04-25T11:46:34;99302.72;;;8.49;67.71
76448;BME280;65284;51.040;13.722;2023-04-25T11:49:02;99299.25;;;8.48;68.53
76448;BME280;65284;51.040;13.722;2023-04-25T11:51:28;99303.56;;;8.74;68.03
76448;BME280;65284;51.040;13.722;2023-04-25T11:53:54;99298.56;;;8.87;66.89
76448;BME280;65284;51.040;13.722;2023-04-25T11:56:22;99307.84;;;8.91;67.13
76448;BME280;65284;51.040;13.722;2023-04-25T11:59:17;99325.72;;;8.81;66.88
76448;BME280;65284;51.040;13.722;2023-04-25T12:01:49;99305.19;;;8.75;66.23
76448;BME280;65284;51.040;13.722;2023-04-25T12:04:16;99321.09;;;8.91;65.40
76448;BME280;65284;51.040;13.722;2023-04-25T12:06:45;99308.81;;;8.90;64.09
76448;BME280;65284;51.040;13.722;2023-04-25T12:09:16;99309.50;;;8.84;64.01
76448;BME280;65284;51.040;13.722;2023-04-25T12:11:45;99307.34;;;8.87;64.11
76448;BME280;65284;51.040;13.722;2023-04-25T12:14:21;99312.47;;;8.89;63.06
76448;BME280;65284;51.040;13.722;2023-04-25T12:16:48;99321.75;;;8.85;63.80
76448;BME280;65284;51.040;13.722;2023-04-25T12:19:16;99325.91;;;8.87;63.96
76448;BME280;65284;51.040;13.722;2023-04-25T12:21:44;99311.66;;;8.88;64.18
76448;BME280;65284;51.040;13.722;2023-04-25T12:24:25;99326.38;;;8.75;63.16
76448;BME280;65284;51.040;13.722;2023-04-25T12:26:54;99324.41;;;8.77;62.93
76448;BME280;65284;51.040;13.722;2023-04-25T12:29:26;99333.31;;;8.84;62.67
76448;BME280;65284;51.040;13.722;2023-04-25T12:32:00;99337.47;;;8.95;61.84
76448;BME280;65284;51.040;13.722;2023-04-25T12:34:28;99324.03;;;9.13;60.52
76448;BME280;65284;51.040;13.722;2023-04-25T12:36:54;99332.13;;;9.19;59.68
76448;BME280;65284;51.040;13.722;2023-04-25T12:39:22;99320.03;;;9.17;59.53
76448;BME280;65284;51.040;13.722;2023-04-25T12:41:52;99324.00;;;9.29;59.10
76448;BME280;65284;51.040;13.722;2023-04-25T12:44:20;99339.41;;;9.25;58.75
76448;BME280;65284;51.040;13.722;2023-04-25T12:46:47;99311.59;;;9.21;59.38
76448;BME280;65284;51.040;13.722;2023-04-25T12:49:14;99326.66;;;9.21;59.40
76448;BME280;65284;51.040;13.722;2023-04-25T12:51:44;99317.22;;;9.18;58.59
76448;BME280;65284;51.040;13.722;2023-04-25T12:54:11;99326.66;;;9.21;58.94
76448;BME280;65284;51.040;13.722;2023-04-25T12:56:37;99323.34;;;9.19;58.95
76448;BME280;65284;51.040;13.722;2023-04-25T12:59:04;99334.47;;;9.14;59.29
76448;BME280;65284;51.040;13.722;2023-04-25T13:01:30;99337.59;;;9.09;59.09
76448;BME280;65284;51.040;13.722;2023-04-25T13:04:01;99332.47;;;9.08;59.61
76448;BME280;65284;51.040;13.722;2023-04-25T13:06:28;99329.19;;;9.06;60.04
76448;BME280;65284;51.040;13.722;2023-04-25T13:08:56;99341.59;;;8.97;60.21